createdAt,value
2018-03-28T00:02:22.770Z,0.40
2018-03-28T00:04:51.807Z,0.40
2018-03-28T00:07:20.847Z,0.30
2018-03-28T00:09:49.921Z,0.30
2018-03-28T00:12:18.949Z,0.30
2018-03-28T00:14:48.069Z,0.30
2018-03-28T00:17:18.126Z,0.30
2018-03-28T00:19:47.162Z,0.20
2018-03-28T00:22:16.191Z,0.30
2018-03-28T00:24:45.358Z,0.20
2018-03-28T00:27:14.402Z,0.30
2018-03-28T00:29:43.436Z,0.20
2018-03-28T00:32:18.473Z,0.20
2018-03-28T00:34:47.506Z,0.20
2018-03-28T00:37:16.570Z,0.20
2018-03-28T00:39:46.378Z,0.00
2018-03-28T00:42:15.408Z,0.00
2018-03-28T00:44:44.439Z,0.00
2018-03-28T00:47:13.484Z,-0.10
2018-03-28T00:49:42.554Z,0.00
2018-03-28T00:52:12.362Z,-0.10
2018-03-28T00:54:41.418Z,-0.10
2018-03-28T00:57:10.574Z,-0.10
2018-03-28T00:59:40.371Z,-0.30
2018-03-28T01:02:10.181Z,-0.30
2018-03-28T01:04:39.993Z,-0.40
2018-03-28T01:07:09.800Z,-0.40
2018-03-28T01:09:38.875Z,-0.40
2018-03-28T01:12:07.908Z,-0.40
2018-03-28T01:14:36.966Z,-0.50
2018-03-28T01:17:06.534Z,-0.50
2018-03-28T01:19:36.211Z,-0.50
2018-03-28T01:22:05.254Z,-0.50
2018-03-28T01:24:34.315Z,-0.40
2018-03-28T01:27:03.362Z,-0.50
2018-03-28T01:29:32.406Z,-0.50
2018-03-28T01:32:01.469Z,-0.60
2018-03-28T01:34:31.277Z,-0.70
2018-03-28T01:37:01.138Z,-0.70
2018-03-28T01:39:30.184Z,-0.80
2018-03-28T01:41:59.224Z,-0.80
2018-03-28T01:44:28.281Z,-0.90
2018-03-28T01:46:58.086Z,-0.90
2018-03-28T01:49:27.121Z,-0.90
2018-03-28T01:51:56.177Z,-0.90
2018-03-28T01:54:25.983Z,-1.00
2018-03-28T01:56:55.030Z,-1.00
2018-03-28T01:59:24.192Z,-1.00
2018-03-28T02:01:54.005Z,-1.00
2018-03-28T02:04:23.051Z,-1.00
2018-03-28T02:06:52.120Z,-0.90
2018-03-28T02:09:21.176Z,-0.90
2018-03-28T02:11:51.028Z,-0.90
2018-03-28T02:14:20.067Z,-0.90
2018-03-28T02:16:49.110Z,-1.00
2018-03-28T02:19:18.326Z,-1.00
2018-03-28T02:21:47.364Z,-1.00
2018-03-28T02:24:17.166Z,-1.00
2018-03-28T02:26:46.230Z,-1.10
2018-03-28T02:29:15.273Z,-1.10
2018-03-28T02:31:45.105Z,-1.10
2018-03-28T02:34:14.935Z,-1.10
2018-03-28T02:36:43.981Z,-1.20
2018-03-28T02:39:13.018Z,-1.20
2018-03-28T02:41:42.090Z,-1.20
2018-03-28T02:44:11.133Z,-1.20
2018-03-28T02:46:40.201Z,-1.30
2018-03-28T02:49:09.278Z,-1.30
2018-03-28T02:51:38.320Z,-1.30
2018-03-28T02:54:07.394Z,-1.40
2018-03-28T02:56:36.488Z,-1.40
2018-03-28T02:59:05.539Z,-1.40
2018-03-28T03:01:35.367Z,-1.40
2018-03-28T03:04:04.447Z,-1.40
2018-03-28T03:06:34.253Z,-1.40
2018-03-28T03:09:04.075Z,-1.40
2018-03-28T03:11:33.889Z,-1.50
2018-03-28T03:14:03.693Z,-1.50
2018-03-28T03:16:33.622Z,-1.60
2018-03-28T03:19:02.673Z,-1.60
2018-03-28T03:21:31.753Z,-1.60
2018-03-28T03:24:00.849Z,-1.60
2018-03-28T03:26:29.892Z,-1.60
2018-03-28T03:28:59.709Z,-1.70
2018-03-28T03:31:28.815Z,-1.70
2018-03-28T03:33:57.861Z,-1.70
2018-03-28T03:36:26.914Z,-1.70
2018-03-28T03:38:56.068Z,-1.70
2018-03-28T03:41:25.903Z,-1.90
2018-03-28T03:43:55.694Z,-1.80
2018-03-28T03:46:25.532Z,-1.90
2018-03-28T03:48:54.584Z,-1.90
2018-03-28T03:51:23.637Z,-1.90
2018-03-28T03:53:52.710Z,-1.90
2018-03-28T03:56:21.764Z,-1.90
2018-03-28T03:58:50.860Z,-1.90
2018-03-28T04:01:19.891Z,-1.90
2018-03-28T04:03:48.942Z,-1.90
2018-03-28T04:06:17.991Z,-1.90
2018-03-28T04:08:47.069Z,-1.90
2018-03-28T04:11:16.883Z,-1.80
2018-03-28T04:13:46.704Z,-1.90
2018-03-28T04:16:15.755Z,-1.90
2018-03-28T04:18:44.813Z,-1.90
2018-03-28T04:21:13.985Z,-1.80
2018-03-28T04:23:43.175Z,-1.80
2018-03-28T04:26:12.980Z,-1.90
2018-03-28T04:28:42.825Z,-1.90
2018-03-28T04:31:11.870Z,-1.90
2018-03-28T04:33:40.919Z,-1.90
2018-03-28T04:36:10.097Z,-1.90
2018-03-28T04:38:39.157Z,-1.80
2018-03-28T04:41:08.987Z,-1.80
2018-03-28T04:43:38.672Z,-1.80
2018-03-28T04:46:07.838Z,-1.70
2018-03-28T04:48:36.898Z,-1.70
2018-03-28T04:51:06.079Z,-1.60
2018-03-28T04:53:35.881Z,-1.60
2018-03-28T04:56:04.925Z,-1.60
2018-03-28T04:58:34.054Z,-1.50
2018-03-28T05:01:03.100Z,-1.50
2018-03-28T05:03:32.152Z,-1.40
2018-03-28T05:06:01.230Z,-1.40
2018-03-28T05:08:30.272Z,-1.40
2018-03-28T05:10:59.333Z,-1.30
2018-03-28T05:13:28.414Z,-1.30
2018-03-28T05:15:57.465Z,-1.20
2018-03-28T05:18:26.489Z,-1.10
2018-03-28T05:20:55.557Z,-1.00
2018-03-28T05:23:24.621Z,-1.00
2018-03-28T05:25:54.639Z,-0.80
2018-03-28T05:28:24.453Z,-0.70
2018-03-28T05:30:54.257Z,-0.70
2018-03-28T05:33:24.101Z,-0.60
2018-03-28T05:35:53.147Z,-0.60
2018-03-28T05:38:22.197Z,-0.50
2018-03-28T05:40:51.268Z,-0.40
2018-03-28T05:43:20.316Z,-0.40
2018-03-28T05:45:49.360Z,-0.30
2018-03-28T05:48:18.429Z,-0.30
2018-03-28T05:50:47.474Z,-0.20
2018-03-28T05:53:16.530Z,-0.20
2018-03-28T05:55:46.370Z,-0.10
2018-03-28T05:58:15.414Z,-0.20
2018-03-28T06:00:44.448Z,-0.10
2018-03-28T06:03:13.516Z,-0.10
2018-03-28T06:05:43.320Z,0.10
2018-03-28T06:08:12.357Z,0.10
2018-03-28T06:10:41.420Z,0.10
2018-03-28T06:13:11.214Z,0.30
2018-03-28T06:15:40.249Z,0.30
2018-03-28T06:18:09.414Z,0.40
2018-03-28T06:20:38.441Z,0.40
2018-03-28T06:23:07.477Z,0.50
2018-03-28T06:25:36.569Z,0.50
2018-03-28T06:28:05.710Z,0.60
2018-03-28T06:30:35.564Z,0.70
2018-03-28T06:33:04.569Z,0.70
2018-03-28T06:35:33.602Z,0.80
2018-03-28T06:38:03.404Z,0.90
2018-03-28T06:40:32.498Z,0.90
2018-03-28T06:43:01.534Z,1.00
2018-03-28T06:45:30.570Z,1.00
2018-03-28T06:47:59.638Z,1.10
2018-03-28T06:50:28.683Z,1.10
2018-03-28T06:52:57.742Z,1.20
2018-03-28T06:55:26.810Z,1.30
2018-03-28T06:57:55.848Z,1.40
2018-03-28T07:00:24.880Z,1.50
2018-03-28T07:02:53.974Z,1.60
2018-03-28T07:05:23.774Z,1.80
2018-03-28T07:07:53.570Z,1.90
2018-03-28T07:10:22.609Z,1.80
2018-03-28T07:12:51.646Z,2.00
2018-03-28T07:15:20.721Z,2.10
2018-03-28T07:17:49.749Z,2.10
2018-03-28T07:20:19.558Z,2.30
2018-03-28T07:22:48.816Z,2.30
2018-03-28T07:25:17.853Z,2.40
2018-03-28T07:27:46.891Z,2.40
2018-03-28T07:30:15.979Z,2.50
2018-03-28T07:32:45.011Z,2.70
2018-03-28T07:35:14.056Z,2.80
2018-03-28T07:37:43.909Z,3.20
2018-03-28T07:40:12.958Z,3.20
2018-03-28T07:42:42.765Z,3.40
2018-03-28T07:45:12.588Z,3.40
2018-03-28T07:47:41.617Z,3.40
2018-03-28T07:50:10.648Z,3.40
2018-03-28T07:52:39.763Z,3.30
2018-03-28T07:55:09.578Z,3.50
2018-03-28T07:57:39.374Z,3.50
2018-03-28T08:00:09.217Z,3.60
2018-03-28T08:02:38.246Z,3.50
2018-03-28T08:05:07.273Z,3.60
2018-03-28T08:07:37.106Z,3.90
2018-03-28T08:10:06.164Z,3.90
2018-03-28T08:12:35.186Z,4.10
2018-03-28T08:15:05.043Z,4.10
2018-03-28T08:17:34.073Z,4.10
2018-03-28T08:20:03.108Z,4.20
2018-03-28T08:22:32.165Z,4.40
2018-03-28T08:25:01.974Z,4.60
2018-03-28T08:27:30.999Z,4.60
2018-03-28T08:30:00.459Z,4.70
2018-03-28T08:32:29.532Z,4.80
2018-03-28T08:34:59.343Z,5.00
2018-03-28T08:37:28.581Z,5.00
2018-03-28T08:39:57.612Z,5.10
2018-03-28T08:42:26.634Z,5.30
2018-03-28T08:44:55.705Z,5.40
2018-03-28T08:47:24.742Z,5.60
2018-03-28T08:49:53.800Z,5.60
2018-03-28T08:52:22.849Z,5.60
2018-03-28T08:54:52.677Z,5.80
2018-03-28T08:57:21.748Z,5.80
2018-03-28T08:59:50.767Z,5.90
2018-03-28T09:02:19.842Z,6.00
2018-03-28T09:04:49.643Z,6.00
2018-03-28T09:07:18.705Z,6.00
2018-03-28T09:09:47.750Z,6.10
2018-03-28T09:12:17.605Z,6.40
2018-03-28T09:14:46.637Z,6.40
2018-03-28T09:17:15.714Z,6.60
2018-03-28T09:19:44.767Z,6.80
2018-03-28T09:22:13.802Z,6.70
2018-03-28T09:24:42.867Z,6.70
2018-03-28T09:27:11.894Z,6.70
2018-03-28T09:29:40.949Z,6.90
2018-03-28T09:32:10.035Z,7.00
2018-03-28T09:34:39.100Z,7.20
2018-03-28T09:37:08.912Z,7.40
2018-03-28T09:39:38.745Z,7.60
2018-03-28T09:42:07.777Z,7.60
2018-03-28T09:44:36.851Z,7.80
2018-03-28T09:47:05.896Z,8.00
2018-03-28T09:49:34.959Z,8.20
2018-03-28T09:52:03.993Z,8.40
2018-03-28T09:54:33.850Z,8.70
2018-03-28T09:57:02.872Z,8.70
2018-03-28T09:59:31.939Z,8.90
2018-03-28T10:02:01.003Z,9.20
2018-03-28T10:04:35.525Z,9.50
2018-03-28T10:07:05.355Z,9.90
2018-03-28T10:09:34.429Z,9.90
2018-03-28T10:12:04.230Z,10.30
2018-03-28T10:14:34.064Z,10.60
2018-03-28T10:17:03.109Z,10.50
2018-03-28T10:19:32.180Z,10.90
2018-03-28T10:22:01.258Z,11.40
2018-03-28T10:24:30.299Z,11.80
2018-03-28T10:26:59.370Z,12.00
2018-03-28T10:29:28.437Z,12.00
2018-03-28T10:31:57.510Z,12.20
2018-03-28T10:34:27.340Z,12.10
2018-03-28T10:36:56.380Z,12.10
2018-03-28T10:39:25.488Z,12.50
2018-03-28T10:41:54.514Z,12.90
2018-03-28T10:44:23.593Z,13.40
2018-03-28T10:46:53.406Z,13.70
2018-03-28T10:49:23.247Z,14.10
2018-03-28T10:51:52.304Z,14.00
2018-03-28T10:54:21.385Z,14.00
2018-03-28T10:56:50.437Z,13.70
2018-03-28T10:59:19.514Z,13.60
2018-03-28T11:01:48.633Z,13.90
2018-03-28T11:04:17.674Z,14.10
2018-03-28T11:06:46.755Z,14.40
2018-03-28T11:09:15.799Z,14.50
2018-03-28T11:11:44.872Z,14.50
2018-03-28T11:14:14.721Z,14.50
2018-03-28T11:16:43.772Z,14.40
2018-03-28T11:19:12.845Z,14.90
2018-03-28T11:21:41.921Z,15.10
2018-03-28T11:24:10.988Z,14.70
2018-03-28T11:26:40.055Z,14.20
2018-03-28T11:29:09.896Z,13.50
2018-03-28T11:31:38.943Z,13.40
2018-03-28T11:34:08.027Z,13.20
2018-03-28T11:36:37.097Z,13.00
2018-03-28T11:39:06.910Z,12.60
2018-03-28T11:41:35.963Z,12.40
2018-03-28T11:47:04.044Z,12.50
2018-03-28T11:49:33.861Z,11.80
2018-03-28T11:52:03.701Z,11.40
2018-03-28T11:54:32.779Z,11.40
2018-03-28T11:57:02.581Z,11.20
2018-03-28T11:59:32.413Z,11.00
2018-03-28T12:02:01.469Z,11.00
2018-03-28T12:04:30.542Z,10.90
2018-03-28T12:06:59.594Z,11.00
2018-03-28T12:09:28.673Z,11.00
2018-03-28T12:11:58.489Z,10.90
2018-03-28T12:14:27.562Z,10.80
2018-03-28T12:16:56.635Z,10.80
2018-03-28T12:19:25.680Z,10.60
2018-03-28T12:21:54.764Z,10.50
2018-03-28T12:24:24.599Z,10.60
2018-03-28T12:26:53.639Z,10.60
2018-03-28T12:29:22.734Z,10.70
2018-03-28T12:31:51.801Z,10.70
2018-03-28T12:34:20.850Z,10.80
2018-03-28T12:36:50.739Z,10.70
2018-03-28T12:39:19.787Z,10.70
2018-03-28T12:41:48.831Z,10.80
2018-03-28T12:44:17.868Z,11.00
2018-03-28T12:46:47.105Z,10.80
2018-03-28T12:49:16.774Z,10.50
2018-03-28T12:51:45.824Z,10.50
2018-03-28T12:54:16.417Z,10.40
2018-03-28T12:56:45.473Z,10.40
2018-03-28T12:59:15.290Z,11.30
2018-03-28T13:01:44.372Z,11.30
2018-03-28T13:04:13.410Z,11.60
2018-03-28T13:06:42.576Z,11.50
2018-03-28T13:09:11.631Z,11.50
2018-03-28T13:11:40.680Z,11.70
2018-03-28T13:14:09.822Z,11.80
2018-03-28T13:16:38.867Z,11.80
2018-03-28T13:19:07.921Z,12.00
2018-03-28T13:21:36.997Z,12.30
2018-03-28T13:24:06.066Z,12.20
2018-03-28T13:26:35.122Z,12.10
2018-03-28T13:29:04.977Z,11.60
2018-03-28T13:31:34.059Z,11.60
2018-03-28T13:34:03.106Z,12.10
2018-03-28T13:36:32.166Z,12.40
2018-03-28T13:39:01.229Z,12.40
2018-03-28T13:41:31.075Z,12.20
2018-03-28T13:44:01.073Z,12.20
2018-03-28T13:46:30.114Z,12.30
2018-03-28T13:48:59.241Z,12.40
2018-03-28T13:51:29.031Z,12.10
2018-03-28T13:53:58.101Z,12.00
2018-03-28T13:56:27.142Z,11.90
2018-03-28T13:58:56.212Z,11.80
2018-03-28T14:01:25.269Z,11.70
2018-03-28T14:03:54.361Z,11.60
2018-03-28T14:06:23.408Z,11.70
2018-03-28T14:08:53.237Z,11.80
2018-03-28T14:11:23.111Z,11.80
2018-03-28T14:13:52.167Z,11.80
2018-03-28T14:16:21.429Z,11.70
2018-03-28T14:18:51.341Z,11.30
2018-03-28T14:21:20.371Z,11.30
2018-03-28T14:23:49.405Z,11.20
2018-03-28T14:26:18.586Z,11.10
2018-03-28T14:28:47.622Z,11.00
2018-03-28T14:31:17.433Z,10.90
2018-03-28T14:33:47.387Z,10.70
2018-03-28T14:36:16.432Z,10.70
2018-03-28T14:38:45.477Z,10.70
2018-03-28T14:41:15.042Z,10.70
2018-03-28T14:43:44.842Z,10.70
2018-03-28T14:46:13.897Z,10.70
2018-03-28T14:48:42.984Z,11.10
2018-03-28T14:51:13.001Z,11.30
2018-03-28T14:53:42.045Z,11.40
2018-03-28T14:56:11.875Z,11.40
2018-03-28T14:58:40.918Z,11.40
2018-03-28T15:01:10.109Z,11.30
2018-03-28T15:03:39.152Z,11.30
2018-03-28T15:06:09.058Z,11.40
2018-03-28T15:08:38.152Z,11.30
2018-03-28T15:11:07.190Z,11.30
2018-03-28T15:13:36.268Z,11.30
2018-03-28T15:16:06.134Z,11.00
2018-03-28T15:18:35.252Z,11.00
2018-03-28T15:21:04.263Z,10.80
2018-03-28T15:23:34.140Z,10.60
2018-03-28T15:26:03.188Z,10.60
2018-03-28T15:28:32.246Z,10.50
2018-03-28T15:31:01.365Z,10.50
2018-03-28T15:33:31.210Z,10.30
2018-03-28T15:36:00.970Z,10.20
2018-03-28T15:38:30.794Z,10.20
2018-03-28T15:41:00.603Z,10.10
2018-03-28T15:43:30.543Z,10.00
2018-03-28T15:45:59.586Z,10.00
2018-03-28T15:48:28.626Z,9.90
2018-03-28T15:50:57.732Z,9.90
2018-03-28T15:53:26.764Z,9.90
2018-03-28T15:55:57.342Z,9.80
2018-03-28T15:58:27.237Z,9.80
2018-03-28T16:00:56.310Z,9.80
2018-03-28T16:03:25.446Z,9.80
2018-03-28T16:05:55.387Z,9.60
2018-03-28T16:08:24.523Z,9.60
2018-03-28T16:10:53.696Z,9.60
2018-03-28T16:13:22.883Z,9.60
2018-03-28T16:15:52.028Z,9.50
2018-03-28T16:18:21.283Z,9.50
2018-03-28T16:20:50.788Z,9.50
2018-03-28T16:23:20.101Z,9.40
2018-03-28T16:25:49.428Z,9.30
2018-03-28T16:28:18.760Z,9.30
2018-03-28T16:30:48.839Z,9.20
2018-03-28T16:33:18.093Z,9.20
2018-03-28T16:35:47.436Z,9.20
2018-03-28T16:38:17.601Z,9.20
2018-03-28T16:40:46.924Z,9.20
2018-03-28T16:43:16.304Z,9.10
2018-03-28T16:45:45.622Z,9.10
2018-03-28T16:48:14.946Z,9.10
2018-03-28T16:50:44.309Z,9.10
2018-03-28T16:53:13.612Z,9.00
2018-03-28T16:55:43.064Z,9.00
2018-03-28T16:58:12.349Z,9.00
2018-03-28T17:00:41.711Z,9.00
2018-03-28T17:03:11.789Z,9.10
2018-03-28T17:05:41.138Z,9.10
2018-03-28T17:08:10.479Z,9.10
2018-03-28T17:10:39.808Z,9.10
2018-03-28T17:13:09.172Z,9.20
2018-03-28T17:15:38.460Z,9.10
2018-03-28T17:18:07.801Z,9.00
2018-03-28T17:20:37.110Z,9.00
2018-03-28T17:23:06.454Z,9.10
2018-03-28T17:25:35.759Z,9.00
2018-03-28T17:28:05.080Z,9.00
2018-03-28T17:30:34.422Z,8.90
2018-03-28T17:33:03.846Z,8.80
2018-03-28T17:35:33.175Z,8.80
2018-03-28T17:38:02.528Z,8.80
2018-03-28T17:40:32.640Z,8.70
2018-03-28T17:43:01.978Z,8.70
2018-03-28T17:45:31.328Z,8.60
2018-03-28T17:48:00.672Z,8.70
2018-03-28T17:50:30.022Z,8.70
2018-03-28T17:52:59.353Z,8.60
2018-03-28T17:55:29.484Z,8.60
2018-03-28T17:57:59.605Z,8.60
2018-03-28T18:00:29.738Z,8.60
2018-03-28T18:02:59.092Z,8.60
2018-03-28T18:05:28.411Z,8.60
2018-03-28T18:07:58.502Z,8.60
2018-03-28T18:10:27.858Z,8.60
2018-03-28T18:12:57.179Z,8.60
2018-03-28T18:15:26.517Z,8.60
2018-03-28T18:17:55.836Z,8.50
2018-03-28T18:20:25.923Z,8.50
2018-03-28T18:22:55.257Z,8.50
2018-03-28T18:25:25.377Z,8.40
2018-03-28T18:27:55.562Z,8.40
2018-03-28T18:30:24.890Z,8.40
2018-03-28T18:32:54.999Z,8.40
2018-03-28T18:35:24.309Z,8.40
2018-03-28T18:37:54.400Z,8.30
2018-03-28T18:40:23.723Z,8.30
2018-03-28T18:42:53.069Z,8.30
2018-03-28T18:45:22.399Z,8.30
2018-03-28T18:47:51.770Z,8.20
2018-03-28T18:52:56.485Z,8.20
2018-03-28T18:55:25.840Z,8.20
2018-03-28T18:57:55.996Z,8.20
2018-03-28T19:00:26.176Z,8.10
2018-03-28T19:02:55.539Z,8.10
2018-03-28T19:05:24.882Z,8.10
2018-03-28T19:07:54.225Z,8.10
2018-03-28T19:10:24.354Z,8.10
2018-03-28T19:12:54.448Z,8.10
2018-03-28T19:15:23.782Z,8.00
2018-03-28T19:17:53.123Z,8.10
2018-03-28T19:20:22.442Z,8.00
2018-03-28T19:22:51.798Z,8.00
2018-03-28T19:25:21.112Z,8.00
2018-03-28T19:27:50.511Z,8.00
2018-03-28T19:30:19.840Z,8.00
2018-03-28T19:32:49.167Z,8.00
2018-03-28T19:35:19.269Z,8.00
2018-03-28T19:37:48.578Z,8.00
2018-03-28T19:40:18.687Z,7.90
2018-03-28T19:42:47.991Z,7.90
2018-03-28T19:45:17.349Z,7.90
2018-03-28T19:47:46.683Z,7.90
2018-03-28T19:50:15.988Z,7.90
2018-03-28T19:52:45.330Z,7.80
2018-03-28T19:55:14.697Z,7.80
2018-03-28T19:57:44.044Z,7.80
2018-03-28T20:00:13.391Z,7.80
2018-03-28T20:02:42.761Z,7.80
2018-03-28T20:05:12.095Z,7.80
2018-03-28T20:07:41.450Z,7.70
2018-03-28T20:10:10.787Z,7.70
2018-03-28T20:12:40.097Z,7.70
2018-03-28T20:15:09.436Z,7.70
2018-03-28T20:17:38.789Z,7.70
2018-03-28T20:20:08.110Z,7.70
2018-03-28T20:22:37.428Z,7.60
2018-03-28T20:25:07.640Z,7.60
2018-03-28T20:27:37.727Z,7.60
2018-03-28T20:30:07.028Z,7.60
2018-03-28T20:32:36.326Z,7.50
2018-03-28T20:35:05.622Z,7.50
2018-03-28T20:37:34.983Z,7.50
2018-03-28T20:40:04.261Z,7.50
2018-03-28T20:42:34.327Z,7.50
2018-03-28T20:45:03.685Z,7.50
2018-03-28T20:47:33.760Z,7.60
2018-03-28T20:50:03.081Z,7.60
2018-03-28T20:52:32.432Z,7.60
2018-03-28T20:55:01.687Z,7.50
2018-03-28T20:57:30.995Z,7.60
2018-03-28T21:00:01.023Z,7.50
2018-03-28T21:02:31.153Z,7.50
2018-03-28T21:05:00.433Z,7.50
2018-03-28T21:07:30.288Z,7.40
2018-03-28T21:09:59.336Z,7.40
2018-03-28T21:12:29.155Z,7.30
2018-03-28T21:14:58.193Z,7.30
2018-03-28T21:17:27.281Z,7.30
2018-03-28T21:19:56.321Z,7.30
2018-03-28T21:22:26.119Z,7.10
2018-03-28T21:24:55.185Z,7.10
2018-03-28T21:27:24.216Z,7.10
2018-03-28T21:29:54.042Z,7.10
2018-03-28T21:32:23.081Z,7.10
2018-03-28T21:34:52.153Z,7.10
2018-03-28T21:37:21.413Z,7.00
2018-03-28T21:39:51.210Z,6.90
2018-03-28T21:42:20.234Z,7.00
2018-03-28T21:44:49.294Z,6.90
2018-03-28T21:47:18.345Z,6.90
2018-03-28T21:49:47.391Z,6.90
2018-03-28T21:52:16.496Z,6.90
2018-03-28T21:54:45.521Z,6.90
2018-03-28T21:57:14.563Z,6.90
2018-03-28T21:59:43.661Z,6.80
2018-03-28T22:02:12.701Z,6.80
2018-03-28T22:04:41.725Z,6.80
2018-03-28T22:07:10.791Z,6.70
2018-03-28T22:09:39.818Z,6.70
2018-03-28T22:12:08.844Z,6.70
2018-03-28T22:14:38.659Z,6.70
2018-03-28T22:17:08.463Z,6.70
2018-03-28T22:19:37.486Z,6.60
2018-03-28T22:22:06.578Z,6.70
2018-03-28T22:24:35.614Z,6.70
2018-03-28T22:27:05.418Z,6.60
2018-03-28T22:29:35.237Z,6.60
2018-03-28T22:32:04.278Z,6.60
2018-03-28T22:34:34.087Z,6.60
2018-03-28T22:37:03.915Z,6.50
2018-03-28T22:39:33.000Z,6.50
2018-03-28T22:42:02.802Z,6.50
2018-03-28T22:44:32.725Z,6.50
2018-03-28T22:47:02.523Z,6.50
2018-03-28T22:49:31.543Z,6.50
2018-03-28T22:52:00.607Z,6.50
2018-03-28T22:54:30.406Z,6.40
2018-03-28T22:56:59.442Z,6.40
2018-03-28T22:59:28.533Z,6.50
2018-03-28T23:01:58.315Z,6.40
2018-03-28T23:04:27.369Z,6.40
2018-03-28T23:06:56.439Z,6.40
2018-03-28T23:09:25.476Z,6.50
2018-03-28T23:11:54.499Z,6.50
2018-03-28T23:14:24.355Z,6.50
2018-03-28T23:16:53.381Z,6.50
2018-03-28T23:19:22.409Z,6.50
2018-03-28T23:21:52.220Z,6.40
2018-03-28T23:24:22.020Z,6.30
2018-03-28T23:26:51.054Z,6.30
2018-03-28T23:29:20.130Z,6.30
2018-03-28T23:31:49.160Z,6.30
2018-03-28T23:34:18.194Z,6.20
2018-03-28T23:36:48.070Z,6.20
2018-03-28T23:39:17.097Z,6.20
2018-03-28T23:41:46.977Z,6.10
2018-03-28T23:44:16.051Z,6.10
2018-03-28T23:46:45.134Z,6.20
2018-03-28T23:49:14.179Z,6.20
2018-03-28T23:51:43.982Z,6.10
2018-03-28T23:54:13.045Z,6.10
2018-03-28T23:56:42.813Z,6.10
2018-03-28T23:59:12.671Z,6.10
